Time;durP1;ratioP1;P1;durP2;ratioP2;P2;SDS_P1;SDS_P2;PMS_P1;PMS_P2;Temp;Humidity;BMP_temperature;BMP_pressure;BME280_temperature;BME280_humidity;BME280_pressure;Samples;Min_cycle;Max_cycle;Signal;HPM_P1;HPM_P2
2023/03/28 00:03:58;;;;;;;4.97;4.53;;;;;;;;;;10319694;28;20493;-66
2023/03/28 00:08:56;;;;;;;6.18;5.05;;;;;;;;;;10320121;28;20064;-66
2023/03/28 00:13:59;;;;;;;10.18;5.53;;;;;;;;;;10318027;28;20075;-64
2023/03/28 00:18:59;;;;;;;5.95;5.32;;;;;;;;;;10319450;28;20040;-65
2023/03/28 00:24:00;;;;;;;6.93;3.92;;;;;;;;;;10320500;28;20524;-65
2023/03/28 00:29:01;;;;;;;4.68;4.28;;;;;;;;;;10319042;28;20068;-65
2023/03/28 00:33:59;;;;;;;3.88;3.50;;;;;;;;;;10319006;28;20068;-64
2023/03/28 00:38:57;;;;;;;6.78;4.60;;;;;;;;;;10310420;28;20080;-65
2023/03/28 00:43:56;;;;;;;5.97;5.45;;;;;;;;;;10317859;28;20044;-65
2023/03/28 00:48:58;;;;;;;5.32;4.32;;;;;;;;;;10318654;28;20067;-65
2023/03/28 00:53:58;;;;;;;4.60;4.00;;;;;;;;;;10317029;28;20072;-65
2023/03/28 00:58:57;;;;;;;7.60;4.85;;;;;;;;;;10317398;28;20076;-65
2023/03/28 01:04:01;;;;;;;5.35;4.50;;;;;;;;;;10317271;28;20083;-65
2023/03/28 01:09:03;;;;;;;4.90;4.28;;;;;;;;;;10308711;28;20080;-65
2023/03/28 01:14:03;;;;;;;5.40;4.22;;;;;;;;;;10323089;28;20146;-65
2023/03/28 01:19:02;;;;;;;7.60;3.90;;;;;;;;;;10317278;28;20060;-66
2023/03/28 01:24:31;;;;;;;5.40;4.30;;;;;;;;;;10316236;28;20068;-65
2023/03/28 01:29:48;;;;;;;4.63;4.07;;;;;;;;;;10316307;28;20080;-65
2023/03/28 01:35:05;;;;;;;7.95;3.67;;;;;;;;;;10316340;28;20076;-65
2023/03/28 01:40:11;;;;;;;3.80;3.00;;;;;;;;;;10307987;28;20537;-65
2023/03/28 01:45:17;;;;;;;5.50;2.85;;;;;;;;;;10315131;28;20091;-66
2023/03/28 01:50:18;;;;;;;4.78;3.72;;;;;;;;;;10316447;28;20064;-66
2023/03/28 01:55:21;;;;;;;3.78;2.90;;;;;;;;;;10315551;28;20064;-66
2023/03/28 02:00:21;;;;;;;3.42;2.90;;;;;;;;;;10314464;28;20078;-66
2023/03/28 02:05:36;;;;;;;3.05;2.40;;;;;;;;;;10321273;28;20072;-66
2023/03/28 02:10:41;;;;;;;3.80;3.00;;;;;;;;;;10314960;28;20074;-66
2023/03/28 02:15:54;;;;;;;5.05;2.40;;;;;;;;;;10309388;28;20051;-66
2023/03/28 02:21:17;;;;;;;4.63;2.60;;;;;;;;;;10301388;28;20077;-65
2023/03/28 02:26:56;;;;;;;3.35;3.00;;;;;;;;;;10270618;28;20369;-66
2023/03/28 02:32:26;;;;;;;3.80;2.92;;;;;;;;;;10264322;28;20090;-65
2023/03/28 02:37:30;;;;;;;10.50;2.90;;;;;;;;;;10313582;28;20047;-65
2023/03/28 02:42:41;;;;;;;3.28;2.97;;;;;;;;;;10315241;28;20087;-65
2023/03/28 02:47:44;;;;;;;4.55;3.65;;;;;;;;;;10312175;28;20552;-65
2023/03/28 02:52:50;;;;;;;3.42;2.92;;;;;;;;;;10312951;28;20425;-65
2023/03/28 02:57:52;;;;;;;3.13;2.55;;;;;;;;;;10312856;28;20048;-65
2023/03/28 03:02:51;;;;;;;3.05;2.42;;;;;;;;;;10312213;28;20095;-65
2023/03/28 03:07:50;;;;;;;4.93;3.30;;;;;;;;;;10313478;28;20068;-65
2023/03/28 03:12:50;;;;;;;5.63;3.83;;;;;;;;;;10316032;28;20065;-65
2023/03/28 03:17:48;;;;;;;4.10;3.80;;;;;;;;;;10304625;28;20514;-65
2023/03/28 03:22:53;;;;;;;8.10;3.90;;;;;;;;;;10317937;28;20082;-65
2023/03/28 03:27:53;;;;;;;5.10;4.60;;;;;;;;;;10303153;28;20458;-64
2023/03/28 03:32:52;;;;;;;8.23;5.43;;;;;;;;;;10316803;28;20497;-65
2023/03/28 03:37:50;;;;;;;6.20;4.50;;;;;;;;;;10321733;28;20187;-65
2023/03/28 03:42:48;;;;;;;9.85;4.93;;;;;;;;;;10319946;28;20048;-65
2023/03/28 03:47:48;;;;;;;9.40;6.57;;;;;;;;;;10319326;28;20040;-65
2023/03/28 03:52:46;;;;;;;6.53;5.25;;;;;;;;;;10306690;28;20079;-65
2023/03/28 03:57:45;;;;;;;9.23;5.13;;;;;;;;;;10319817;28;20080;-65
2023/03/28 04:02:43;;;;;;;13.48;8.43;;;;;;;;;;10318463;28;20084;-65
2023/03/28 04:07:43;;;;;;;7.10;5.22;;;;;;;;;;10318339;28;20076;-66
2023/03/28 04:12:52;;;;;;;6.15;5.55;;;;;;;;;;10309287;28;20080;-65
2023/03/28 04:17:51;;;;;;;6.05;5.45;;;;;;;;;;10318863;28;20544;-65
2023/03/28 04:22:54;;;;;;;7.15;6.07;;;;;;;;;;10317684;28;20052;-65
2023/03/28 04:27:53;;;;;;;6.05;5.45;;;;;;;;;;10318543;28;20040;-65
2023/03/28 04:32:54;;;;;;;8.50;5.65;;;;;;;;;;10309228;28;20097;-65
2023/03/28 04:37:57;;;;;;;7.93;5.15;;;;;;;;;;10313571;28;20103;-65
2023/03/28 04:42:56;;;;;;;6.85;5.22;;;;;;;;;;10309787;28;20074;-65
2023/03/28 04:48:00;;;;;;;5.72;5.10;;;;;;;;;;10318079;28;20067;-65
2023/03/28 04:53:00;;;;;;;7.32;5.00;;;;;;;;;;10317046;28;20080;-64
2023/03/28 04:57:59;;;;;;;6.00;4.53;;;;;;;;;;10317334;28;20506;-65
2023/03/28 05:02:58;;;;;;;8.25;4.72;;;;;;;;;;10316660;28;20072;-65
2023/03/28 05:08:02;;;;;;;5.72;5.15;;;;;;;;;;10315279;28;20072;-65
2023/03/28 05:13:00;;;;;;;7.13;3.75;;;;;;;;;;10311778;28;20075;-64
2023/03/28 05:18:02;;;;;;;5.30;4.90;;;;;;;;;;10313426;28;20091;-63
2023/03/28 05:23:06;;;;;;;5.55;4.72;;;;;;;;;;10298826;28;20072;-63
2023/03/28 05:28:07;;;;;;;5.88;4.38;;;;;;;;;;10303393;28;20513;-64
2023/03/28 05:33:14;;;;;;;6.25;5.57;;;;;;;;;;10308570;28;20088;-64
2023/03/28 05:38:15;;;;;;;7.15;4.63;;;;;;;;;;10316734;28;20048;-64
2023/03/28 05:43:20;;;;;;;9.43;5.57;;;;;;;;;;10296485;28;20041;-64
2023/03/28 05:48:18;;;;;;;5.85;4.45;;;;;;;;;;10290870;28;20059;-64
2023/03/28 05:53:19;;;;;;;6.13;4.80;;;;;;;;;;10300964;28;20075;-64
2023/03/28 05:58:17;;;;;;;7.05;4.85;;;;;;;;;;10290633;28;20081;-64
2023/03/28 06:03:15;;;;;;;6.90;6.15;;;;;;;;;;10289401;28;20044;-64
2023/03/28 06:08:16;;;;;;;15.73;5.57;;;;;;;;;;10290629;28;20064;-64
2023/03/28 06:13:17;;;;;;;7.35;5.53;;;;;;;;;;10295432;28;20084;-64
2023/03/28 06:18:17;;;;;;;4.88;4.35;;;;;;;;;;10272418;28;20422;-63
2023/03/28 06:23:18;;;;;;;6.25;4.53;;;;;;;;;;10278665;28;20049;-64
2023/03/28 06:28:18;;;;;;;10.05;6.63;;;;;;;;;;10275150;28;20064;-63
2023/03/28 06:33:40;;;;;;;9.57;7.57;;;;;;;;;;10281714;28;20076;-63
2023/03/28 06:38:38;;;;;;;17.13;12.50;;;;;;;;;;10274426;28;20160;-63
2023/03/28 06:43:39;;;;;;;11.55;9.57;;;;;;;;;;10297401;28;20080;-64
2023/03/28 06:48:38;;;;;;;8.18;5.57;;;;;;;;;;10287222;28;20049;-63
2023/03/28 06:54:12;;;;;;;10.95;7.25;;;;;;;;;;10299312;28;20683;-64
2023/03/28 06:59:11;;;;;;;8.43;6.40;;;;;;;;;;10293455;28;20056;-64
2023/03/28 07:04:10;;;;;;;8.10;5.70;;;;;;;;;;10299677;28;20080;-63
2023/03/28 07:09:11;;;;;;;7.72;4.95;;;;;;;;;;10312794;28;20063;-64
2023/03/28 07:14:23;;;;;;;5.68;4.55;;;;;;;;;;10294262;28;20091;-64
2023/03/28 07:19:21;;;;;;;11.88;6.70;;;;;;;;;;10272888;28;20056;-64
2023/03/28 07:24:21;;;;;;;5.50;5.00;;;;;;;;;;10272311;28;20041;-65
2023/03/28 07:29:41;;;;;;;7.32;4.78;;;;;;;;;;10279470;28;20506;-64
2023/03/28 07:34:39;;;;;;;6.32;4.53;;;;;;;;;;10273699;28;20095;-64
2023/03/28 07:39:42;;;;;;;7.93;5.47;;;;;;;;;;10271404;28;20076;-65
2023/03/28 07:44:47;;;;;;;7.90;5.43;;;;;;;;;;10272190;28;20064;-64
2023/03/28 07:49:46;;;;;;;8.13;5.45;;;;;;;;;;10307622;28;20197;-64
2023/03/28 07:54:44;;;;;;;8.63;5.93;;;;;;;;;;10311015;28;20056;-64
2023/03/28 07:59:43;;;;;;;7.65;4.80;;;;;;;;;;10311631;28;20044;-64
2023/03/28 08:04:42;;;;;;;6.00;3.58;;;;;;;;;;10298008;28;20051;-64
2023/03/28 08:09:42;;;;;;;8.82;3.95;;;;;;;;;;10311185;28;20045;-65
2023/03/28 08:14:59;;;;;;;6.88;3.45;;;;;;;;;;10298533;28;20068;-64
2023/03/28 08:20:00;;;;;;;10.40;6.43;;;;;;;;;;10314234;28;20075;-64
2023/03/28 08:25:21;;;;;;;13.57;5.68;;;;;;;;;;10310144;28;20080;-64
2023/03/28 08:30:21;;;;;;;9.60;4.03;;;;;;;;;;10277216;28;20091;-63
2023/03/28 08:35:27;;;;;;;14.32;6.68;;;;;;;;;;10311806;28;20076;-64
2023/03/28 08:40:29;;;;;;;13.18;4.68;;;;;;;;;;10294092;28;20091;-63
2023/03/28 08:45:54;;;;;;;7.80;4.30;;;;;;;;;;10295953;28;20063;-64
2023/03/28 08:50:57;;;;;;;8.85;5.90;;;;;;;;;;10317747;28;20500;-63
2023/03/28 08:55:57;;;;;;;4.68;3.65;;;;;;;;;;10279372;28;20045;-63
2023/03/28 09:00:55;;;;;;;9.20;3.42;;;;;;;;;;10276565;28;20402;-63
2023/03/28 09:05:59;;;;;;;4.78;3.95;;;;;;;;;;10289998;28;20073;-64
2023/03/28 09:10:58;;;;;;;;;;;;;;;;;;10276647;28;20084;-64
2023/03/28 09:16:05;;;;;;;9.05;5.53;;;;;;;;;;10314400;28;20035;-64
2023/03/28 09:21:14;;;;;;;3.47;2.55;;;;;;;;;;10316138;28;20072;-65
2023/03/28 09:26:15;;;;;;;3.30;2.97;;;;;;;;;;10316028;28;20049;-64
2023/03/28 09:31:19;;;;;;;10.15;4.72;;;;;;;;;;10301203;28;20533;-64
2023/03/28 09:36:21;;;;;;;7.28;4.13;;;;;;;;;;10288760;28;20043;-63
2023/03/28 09:41:24;;;;;;;6.75;4.43;;;;;;;;;;10278638;28;20052;-63
2023/03/28 09:46:44;;;;;;;6.88;4.13;;;;;;;;;;10316685;28;20082;-64
2023/03/28 09:51:56;;;;;;;3.92;3.50;;;;;;;;;;10317897;28;20076;-63
2023/03/28 09:56:58;;;;;;;7.72;3.85;;;;;;;;;;10291003;28;20064;-64
2023/03/28 10:02:27;;;;;;;3.30;3.03;;;;;;;;;;10289754;28;20087;-64
2023/03/28 10:07:31;;;;;;;7.07;3.10;;;;;;;;;;10293598;28;20523;-64
2023/03/28 10:12:48;;;;;;;10.77;2.90;;;;;;;;;;10295649;28;20092;-64
2023/03/28 10:17:47;;;;;;;9.70;3.40;;;;;;;;;;10284222;28;20080;-64
2023/03/28 10:22:53;;;;;;;7.32;4.03;;;;;;;;;;10296330;28;20582;-64
2023/03/28 10:27:52;;;;;;;7.20;4.28;;;;;;;;;;10297607;28;20504;-64
2023/03/28 10:33:06;;;;;;;4.68;3.83;;;;;;;;;;10276490;28;20568;-64
2023/03/28 10:38:23;;;;;;;8.93;3.83;;;;;;;;;;10277469;28;20087;-64
2023/03/28 10:43:44;;;;;;;5.45;3.10;;;;;;;;;;10296885;28;20072;-64
2023/03/28 10:48:48;;;;;;;7.72;5.10;;;;;;;;;;10281330;28;20085;-64
2023/03/28 10:53:59;;;;;;;16.10;4.78;;;;;;;;;;10282023;28;20071;-64
2023/03/28 10:59:07;;;;;;;9.43;4.72;;;;;;;;;;10305589;28;20076;-63
2023/03/28 11:04:11;;;;;;;9.32;5.68;;;;;;;;;;10291743;28;20068;-64
2023/03/28 11:09:17;;;;;;;16.75;8.15;;;;;;;;;;10289359;28;20076;-64
2023/03/28 11:14:37;;;;;;;22.95;5.60;;;;;;;;;;10284810;28;20076;-64
2023/03/28 11:19:50;;;;;;;12.00;6.75;;;;;;;;;;10302494;28;20044;-64
2023/03/28 11:24:56;;;;;;;10.80;4.70;;;;;;;;;;10284714;28;20103;-65
2023/03/28 11:30:26;;;;;;;7.65;4.88;;;;;;;;;;10283018;28;20088;-64
2023/03/28 11:35:54;;;;;;;6.78;4.40;;;;;;;;;;10294590;28;20091;-64
2023/03/28 11:40:57;;;;;;;10.70;7.78;;;;;;;;;;10305966;28;20088;-64
2023/03/28 11:46:20;;;;;;;7.45;3.47;;;;;;;;;;10286157;28;20453;-64
2023/03/28 11:51:23;;;;;;;5.93;3.92;;;;;;;;;;10291771;28;20799;-63
2023/03/28 11:56:34;;;;;;;10.50;4.68;;;;;;;;;;10287021;28;20080;-62
2023/03/28 12:01:42;;;;;;;4.70;3.30;;;;;;;;;;10284815;28;20084;-64
2023/03/28 12:06:43;;;;;;;6.78;3.75;;;;;;;;;;10300754;28;20080;-64
2023/03/28 12:11:57;;;;;;;12.43;4.55;;;;;;;;;;10298962;28;20080;-64
2023/03/28 12:16:57;;;;;;;5.97;3.72;;;;;;;;;;10310873;28;20060;-63
2023/03/28 12:22:00;;;;;;;5.72;3.17;;;;;;;;;;10308517;28;20057;-64
2023/03/28 12:27:14;;;;;;;6.80;3.38;;;;;;;;;;10308364;28;20052;-64
2023/03/28 12:32:23;;;;;;;18.77;5.05;;;;;;;;;;10315628;28;20083;-65
2023/03/28 12:37:28;;;;;;;10.90;4.07;;;;;;;;;;10312184;28;20079;-64
2023/03/28 12:42:35;;;;;;;4.72;2.38;;;;;;;;;;10297821;28;20505;-64
2023/03/28 12:47:36;;;;;;;3.40;2.40;;;;;;;;;;10288123;28;20076;-63
2023/03/28 12:52:37;;;;;;;6.57;3.00;;;;;;;;;;10287665;28;20096;-63
2023/03/28 12:57:42;;;;;;;4.28;3.03;;;;;;;;;;10291817;28;20508;-64
2023/03/28 13:03:15;;;;;;;7.72;5.45;;;;;;;;;;10296004;28;20076;-64
2023/03/28 13:08:17;;;;;;;4.47;3.80;;;;;;;;;;10296118;28;20060;-63
2023/03/28 13:13:22;;;;;;;8.65;4.82;;;;;;;;;;10288679;28;20064;-64
2023/03/28 13:18:24;;;;;;;8.13;4.05;;;;;;;;;;10287972;28;20509;-64
2023/03/28 13:23:27;;;;;;;10.85;7.45;;;;;;;;;;10286778;28;20071;-63
2023/03/28 13:28:31;;;;;;;17.55;11.65;;;;;;;;;;10287609;28;20067;-63
2023/03/28 13:33:32;;;;;;;20.35;10.25;;;;;;;;;;10283828;28;20122;-64
2023/03/28 13:38:35;;;;;;;14.75;7.00;;;;;;;;;;10290376;28;20091;-64
2023/03/28 13:43:41;;;;;;;17.67;11.25;;;;;;;;;;10303549;28;20060;-64
2023/03/28 13:48:45;;;;;;;20.27;10.20;;;;;;;;;;10304503;28;20483;-64
2023/03/28 13:53:47;;;;;;;21.88;10.63;;;;;;;;;;10301702;28;20501;-64
2023/03/28 13:58:48;;;;;;;17.58;11.68;;;;;;;;;;10306235;28;20064;-64
2023/03/28 14:03:48;;;;;;;69.95;36.65;;;;;;;;;;10306904;28;20048;-64
2023/03/28 14:08:46;;;;;;;89.68;49.72;;;;;;;;;;10308307;28;20103;-65
2023/03/28 14:13:45;;;;;;;84.05;43.53;;;;;;;;;;10304022;28;20472;-64
2023/03/28 14:18:46;;;;;;;114.00;59.83;;;;;;;;;;10309252;28;20082;-65
2023/03/28 14:23:54;;;;;;;59.58;36.70;;;;;;;;;;10313933;28;20064;-64
2023/03/28 14:28:52;;;;;;;37.65;17.17;;;;;;;;;;10314570;28;20084;-64
2023/03/28 14:33:52;;;;;;;31.88;15.88;;;;;;;;;;10308256;28;20142;-64
2023/03/28 14:38:51;;;;;;;42.67;21.92;;;;;;;;;;10295075;28;20525;-65
2023/03/28 14:43:51;;;;;;;43.40;21.70;;;;;;;;;;10315057;28;20072;-65
2023/03/28 14:48:52;;;;;;;36.25;22.15;;;;;;;;;;10314308;28;20272;-65
2023/03/28 14:53:52;;;;;;;26.30;15.73;;;;;;;;;;10313781;28;20068;-65
2023/03/28 14:58:54;;;;;;;35.28;23.98;;;;;;;;;;10307092;28;20591;-65
2023/03/28 15:03:56;;;;;;;22.08;15.05;;;;;;;;;;10314406;28;20059;-64
2023/03/28 15:08:57;;;;;;;75.03;39.85;;;;;;;;;;10314292;28;20470;-64
2023/03/28 15:13:59;;;;;;;16.98;6.72;;;;;;;;;;10301407;28;20462;-64
2023/03/28 15:18:59;;;;;;;28.45;15.43;;;;;;;;;;10314326;28;20076;-66
2023/03/28 15:23:59;;;;;;;15.43;11.10;;;;;;;;;;10314091;28;20060;-66
2023/03/28 15:29:01;;;;;;;15.18;10.50;;;;;;;;;;10316361;28;20483;-66
2023/03/28 15:33:59;;;;;;;36.10;24.40;;;;;;;;;;10321406;28;20068;-66
2023/03/28 15:39:02;;;;;;;14.90;10.52;;;;;;;;;;10319741;28;20144;-67
2023/03/28 15:44:10;;;;;;;16.15;9.48;;;;;;;;;;10319308;28;20071;-67
2023/03/28 15:49:11;;;;;;;26.92;16.00;;;;;;;;;;10317552;28;20068;-66
2023/03/28 15:54:12;;;;;;;16.40;12.02;;;;;;;;;;10302577;28;20080;-67
2023/03/28 15:59:30;;;;;;;15.43;8.77;;;;;;;;;;10292689;28;20099;-67
2023/03/28 16:04:28;;;;;;;38.47;15.63;;;;;;;;;;10294166;28;20075;-66
2023/03/28 16:09:28;;;;;;;27.73;15.65;;;;;;;;;;10293564;28;20116;-67
2023/03/28 16:14:26;;;;;;;13.30;8.13;;;;;;;;;;10286274;28;20100;-67
2023/03/28 16:19:48;;;;;;;30.48;16.42;;;;;;;;;;10294890;28;20064;-66
2023/03/28 16:24:49;;;;;;;8.88;7.05;;;;;;;;;;10284810;28;20079;-67
2023/03/28 16:29:47;;;;;;;12.98;6.60;;;;;;;;;;10282561;28;20153;-66
2023/03/28 16:34:45;;;;;;;4.85;4.35;;;;;;;;;;10297236;28;20072;-65
2023/03/28 16:39:43;;;;;;;6.95;5.55;;;;;;;;;;10302961;28;20083;-65
2023/03/28 16:44:43;;;;;;;7.40;5.57;;;;;;;;;;10304829;28;20306;-65
2023/03/28 16:49:41;;;;;;;10.68;6.82;;;;;;;;;;10307730;28;20068;-65
2023/03/28 16:54:40;;;;;;;15.05;11.65;;;;;;;;;;10296542;28;20076;-65
2023/03/28 16:59:38;;;;;;;17.73;14.43;;;;;;;;;;10301455;28;20075;-66
2023/03/28 17:04:37;;;;;;;10.35;7.78;;;;;;;;;;10305181;28;20060;-67
2023/03/28 17:09:36;;;;;;;64.30;34.13;;;;;;;;;;10307066;28;20487;-67
2023/03/28 17:14:34;;;;;;;55.92;35.65;;;;;;;;;;10298473;28;20437;-64
2023/03/28 17:19:33;;;;;;;37.75;20.52;;;;;;;;;;10308220;28;20461;-65
2023/03/28 17:24:33;;;;;;;14.43;10.05;;;;;;;;;;10292764;28;21377;-65
2023/03/28 17:29:31;;;;;;;21.90;12.30;;;;;;;;;;10303213;28;20065;-65
2023/03/28 17:34:30;;;;;;;15.40;8.38;;;;;;;;;;10293850;28;20079;-65
2023/03/28 17:39:29;;;;;;;24.15;12.30;;;;;;;;;;10293619;28;20086;-65
2023/03/28 17:44:28;;;;;;;38.92;15.93;;;;;;;;;;10280823;28;20464;-65
2023/03/28 17:49:27;;;;;;;26.33;13.10;;;;;;;;;;10291698;28;20077;-62
2023/03/28 17:54:25;;;;;;;42.22;17.42;;;;;;;;;;10278877;28;20489;-64
2023/03/28 17:59:23;;;;;;;21.70;12.60;;;;;;;;;;10293475;28;20076;-65
2023/03/28 18:04:23;;;;;;;9.45;6.32;;;;;;;;;;10289866;28;20075;-65
2023/03/28 18:09:40;;;;;;;9.60;7.28;;;;;;;;;;10288259;28;20488;-65
2023/03/28 18:14:38;;;;;;;8.13;6.35;;;;;;;;;;10292757;28;20072;-65
2023/03/28 18:19:38;;;;;;;5.03;4.53;;;;;;;;;;10282548;28;20072;-65
2023/03/28 18:24:36;;;;;;;6.13;4.82;;;;;;;;;;10279206;28;20065;-66
2023/03/28 18:29:34;;;;;;;5.07;4.57;;;;;;;;;;10306587;28;20925;-65
2023/03/28 18:34:33;;;;;;;6.47;5.90;;;;;;;;;;10298189;28;20084;-64
2023/03/28 18:39:32;;;;;;;6.90;5.25;;;;;;;;;;10290658;28;20067;-65
2023/03/28 18:44:34;;;;;;;8.90;5.43;;;;;;;;;;10285133;28;20087;-67
2023/03/28 18:49:33;;;;;;;8.00;4.70;;;;;;;;;;10306569;28;20076;-64
2023/03/28 18:54:33;;;;;;;4.88;4.00;;;;;;;;;;10272794;28;20091;-64
2023/03/28 18:59:31;;;;;;;6.57;4.45;;;;;;;;;;10280064;28;20068;-65
2023/03/28 19:04:30;;;;;;;6.53;5.22;;;;;;;;;;10288172;28;20040;-64
2023/03/28 19:09:28;;;;;;;24.73;15.23;;;;;;;;;;10311829;28;20080;-65
2023/03/28 19:14:28;;;;;;;11.57;7.95;;;;;;;;;;10317857;28;20072;-65
2023/03/28 19:19:26;;;;;;;10.93;8.73;;;;;;;;;;10280009;28;20075;-65
2023/03/28 19:24:24;;;;;;;25.15;18.42;;;;;;;;;;10311151;28;20076;-66
2023/03/28 19:29:23;;;;;;;5.82;5.03;;;;;;;;;;10292477;28;20064;-65
2023/03/28 19:34:22;;;;;;;5.38;3.75;;;;;;;;;;10288249;28;20084;-65
2023/03/28 19:39:21;;;;;;;6.93;5.53;;;;;;;;;;10306734;28;20083;-65
2023/03/28 19:44:19;;;;;;;7.13;5.30;;;;;;;;;;10312090;28;20060;-64
2023/03/28 19:49:18;;;;;;;4.18;3.60;;;;;;;;;;10303572;28;20056;-65
2023/03/28 19:54:17;;;;;;;3.92;3.53;;;;;;;;;;10314249;28;20060;-63
2023/03/28 19:59:16;;;;;;;10.60;6.10;;;;;;;;;;10298806;28;20072;-62
2023/03/28 20:04:14;;;;;;;6.15;5.22;;;;;;;;;;10307395;28;20040;-64
2023/03/28 20:09:13;;;;;;;9.90;7.00;;;;;;;;;;10301460;28;20110;-64
2023/03/28 20:14:16;;;;;;;23.85;13.55;;;;;;;;;;10280224;28;20076;-64
2023/03/28 20:19:16;;;;;;;20.83;11.33;;;;;;;;;;10312856;28;20064;-65
2023/03/28 20:24:16;;;;;;;12.75;9.43;;;;;;;;;;10315110;28;20071;-63
2023/03/28 20:29:16;;;;;;;13.32;8.35;;;;;;;;;;10319711;28;20071;-64
2023/03/28 20:34:14;;;;;;;6.68;5.75;;;;;;;;;;10313049;28;20060;-65
2023/03/28 20:39:13;;;;;;;7.35;6.10;;;;;;;;;;10317688;28;20080;-65
2023/03/28 20:44:15;;;;;;;11.27;7.80;;;;;;;;;;10319776;28;21492;-65
2023/03/28 20:49:16;;;;;;;7.43;4.18;;;;;;;;;;10317770;28;20075;-65
2023/03/28 20:54:14;;;;;;;8.93;5.63;;;;;;;;;;10319633;28;20072;-65
2023/03/28 20:59:12;;;;;;;7.38;5.97;;;;;;;;;;10319249;28;20072;-65
2023/03/28 21:04:11;;;;;;;6.88;5.65;;;;;;;;;;10317852;28;20544;-65
2023/03/28 21:09:14;;;;;;;11.10;8.20;;;;;;;;;;10318643;28;20072;-65
2023/03/28 21:14:13;;;;;;;7.47;6.20;;;;;;;;;;10317835;28;20076;-64
2023/03/28 21:19:11;;;;;;;9.00;7.28;;;;;;;;;;10318196;28;20064;-65
2023/03/28 21:24:10;;;;;;;6.32;5.72;;;;;;;;;;10318420;28;20060;-65
2023/03/28 21:29:09;;;;;;;4.85;4.35;;;;;;;;;;10316472;28;20064;-65
2023/03/28 21:34:07;;;;;;;3.78;3.47;;;;;;;;;;10313691;28;20080;-64
2023/03/28 21:39:06;;;;;;;10.93;7.65;;;;;;;;;;10317123;28;20084;-65
2023/03/28 21:44:06;;;;;;;6.63;5.90;;;;;;;;;;10316682;28;20067;-65
2023/03/28 21:49:04;;;;;;;9.10;6.03;;;;;;;;;;10316999;28;20064;-64
2023/03/28 21:54:02;;;;;;;5.65;5.03;;;;;;;;;;10316802;28;20401;-65
2023/03/28 21:59:01;;;;;;;10.68;6.97;;;;;;;;;;10316743;28;20068;-65
2023/03/28 22:04:00;;;;;;;16.02;8.95;;;;;;;;;;10316461;28;20075;-65
2023/03/28 22:08:59;;;;;;;18.88;10.23;;;;;;;;;;10302949;28;20041;-64
2023/03/28 22:14:01;;;;;;;8.05;6.25;;;;;;;;;;10316430;28;20069;-64
2023/03/28 22:19:01;;;;;;;29.35;14.85;;;;;;;;;;10315201;28;20075;-64
2023/03/28 22:24:01;;;;;;;12.85;8.95;;;;;;;;;;10316005;28;20071;-64
2023/03/28 22:28:59;;;;;;;15.52;10.10;;;;;;;;;;10315809;28;20075;-64
2023/03/28 22:33:57;;;;;;;4.88;4.38;;;;;;;;;;10315979;28;20067;-64
2023/03/28 22:38:57;;;;;;;5.07;4.03;;;;;;;;;;10313833;28;20530;-65
2023/03/28 22:43:55;;;;;;;28.20;14.23;;;;;;;;;;10315225;28;20076;-65
2023/03/28 22:48:56;;;;;;;9.10;6.65;;;;;;;;;;10314141;28;20080;-65
2023/03/28 22:53:58;;;;;;;8.60;5.35;;;;;;;;;;10314883;28;20561;-65
2023/03/28 22:58:59;;;;;;;24.67;13.45;;;;;;;;;;10314828;28;20543;-65
2023/03/28 23:03:58;;;;;;;6.28;4.55;;;;;;;;;;10312044;28;20523;-65
2023/03/28 23:08:57;;;;;;;4.57;3.97;;;;;;;;;;10314776;28;20040;-64
2023/03/28 23:13:55;;;;;;;5.35;4.75;;;;;;;;;;10313537;28;20422;-65
2023/03/28 23:18:55;;;;;;;4.65;4.25;;;;;;;;;;10301942;28;20072;-64
2023/03/28 23:23:53;;;;;;;4.43;3.83;;;;;;;;;;10313130;28;20092;-65
2023/03/28 23:28:51;;;;;;;4.85;4.45;;;;;;;;;;10314296;28;20071;-64
2023/03/28 23:33:49;;;;;;;5.25;4.43;;;;;;;;;;10316985;28;20059;-64
2023/03/28 23:38:49;;;;;;;7.55;5.13;;;;;;;;;;10313528;28;20087;-65
2023/03/28 23:43:48;;;;;;;4.93;3.35;;;;;;;;;;10314385;28;20067;-65
2023/03/28 23:48:46;;;;;;;7.55;5.50;;;;;;;;;;10314947;28;20068;-65
2023/03/28 23:53:44;;;;;;;3.83;3.53;;;;;;;;;;10320760;28;20088;-64
2023/03/28 23:58:43;;;;;;;4.65;4.25;;;;;;;;;;10321367;28;20548;-65
